Terminal Aerodrome Forecast
Issued by NWS

Home | Current Version | Previous Version | Text Only | Print | Product List | Glossary On
Versions: 1 2 3 4 5 6 7 8 9 10 11 12 13 14 15 16 17 18
000
FTUS43 KGRB 271531 AAA
TAFRHI
TAF AMD
KRHI 271531Z 2716/2812 VRB03KT P6SM -SHRA FEW008 SCT025 BKN050
     FM272100 04004KT 4SM -SHRA BKN025 OVC040
     FM280100 07004KT P6SM VCSH BKN025 OVC040
     FM280600 09006KT 5SM BR BKN020
     FM280900 06003KT 2SM BR BKN009 OVC018=

USA.gov is the U.S. government's official web portal to all federal, state and local government web resources and services.